Time;durP1;ratioP1;P1;durP2;ratioP2;P2;SDS_P1;SDS_P2;PMS_P1;PMS_P2;Temp;Humidity;BMP_temperature;BMP_pressure;BME280_temperature;BME280_humidity;BME280_pressure;Samples;Min_cycle;Max_cycle;Signal;HPM_P1;HPM_P2
2022/06/11 00:00:44;;;;;;;13.05;6.30;;;;;;;;;;5040993;28;20029;-71
2022/06/11 00:03:11;;;;;;;12.90;6.25;;;;;;;;;;5044206;28;20028;-71
2022/06/11 00:05:37;;;;;;;11.07;6.30;;;;;;;;;;5047664;28;20096;-71
2022/06/11 00:08:02;;;;;;;29.80;7.40;;;;;;;;;;5041445;28;20427;-71
2022/06/11 00:10:27;;;;;;;12.75;6.95;;;;;;;;;;5045214;28;20028;-71
2022/06/11 00:12:53;;;;;;;13.55;7.05;;;;;;;;;;5039092;28;20021;-71
2022/06/11 00:15:18;;;;;;;13.43;7.82;;;;;;;;;;5041730;28;20382;-71
2022/06/11 00:17:44;;;;;;;15.10;8.25;;;;;;;;;;5040753;28;20029;-71
2022/06/11 00:20:10;;;;;;;13.77;8.57;;;;;;;;;;5047940;28;20127;-71
2022/06/11 00:22:35;;;;;;;13.88;8.30;;;;;;;;;;5037522;28;20032;-71
2022/06/11 00:25:01;;;;;;;16.27;9.27;;;;;;;;;;5045109;28;20036;-71
2022/06/11 00:27:26;;;;;;;16.17;9.20;;;;;;;;;;5042745;28;20025;-71
2022/06/11 00:29:52;;;;;;;14.48;9.20;;;;;;;;;;5034849;28;20022;-71
2022/06/11 00:32:17;;;;;;;19.63;9.75;;;;;;;;;;5038387;28;20075;-71
2022/06/11 00:34:45;;;;;;;14.82;8.73;;;;;;;;;;5045253;28;20039;-71
2022/06/11 00:37:11;;;;;;;13.45;7.80;;;;;;;;;;5037435;28;20025;-72
2022/06/11 00:39:37;;;;;;;14.80;8.25;;;;;;;;;;5040369;28;20477;-71
2022/06/11 00:42:07;;;;;;;13.13;7.15;;;;;;;;;;5043412;28;20033;-71
2022/06/11 00:44:32;;;;;;;15.23;7.38;;;;;;;;;;5049337;28;20567;-71
2022/06/11 00:47:19;;;;;;;12.20;7.05;;;;;;;;;;5050308;28;20104;-71
2022/06/11 00:49:49;;;;;;;12.90;7.30;;;;;;;;;;5051345;28;20021;-71
2022/06/11 00:52:20;;;;;;;12.95;7.72;;;;;;;;;;5043453;28;20036;-71
2022/06/11 00:54:52;;;;;;;15.52;7.57;;;;;;;;;;5039578;28;20092;-71
2022/06/11 00:57:18;;;;;;;14.65;7.80;;;;;;;;;;5036532;28;20049;-71
2022/06/11 00:59:48;;;;;;;12.18;7.38;;;;;;;;;;5037783;28;20044;-71
2022/06/11 01:02:13;;;;;;;14.25;7.75;;;;;;;;;;5041945;28;20025;-71
2022/06/11 01:04:48;;;;;;;13.10;7.35;;;;;;;;;;5041985;28;20094;-71
2022/06/11 01:07:20;;;;;;;13.70;7.82;;;;;;;;;;5037335;28;20051;-71
2022/06/11 01:10:01;;;;;;;13.57;7.60;;;;;;;;;;5039825;28;20033;-70
2022/06/11 01:12:50;;;;;;;14.25;8.10;;;;;;;;;;5042020;28;20040;-70
2022/06/11 01:15:25;;;;;;;14.40;7.50;;;;;;;;;;5045857;28;20049;-70
2022/06/11 01:17:54;;;;;;;11.55;7.75;;;;;;;;;;5038352;28;20116;-70
2022/06/11 01:20:19;;;;;;;12.63;7.00;;;;;;;;;;5044278;28;20124;-70
2022/06/11 01:22:44;;;;;;;15.57;7.45;;;;;;;;;;5043709;28;20116;-70
2022/06/11 01:25:27;;;;;;;14.45;7.05;;;;;;;;;;5047013;28;20033;-70
2022/06/11 01:27:56;;;;;;;11.68;7.10;;;;;;;;;;5045813;28;20021;-70
2022/06/11 01:30:26;;;;;;;10.20;6.55;;;;;;;;;;5042628;28;20021;-70
2022/06/11 01:32:58;;;;;;;12.50;5.95;;;;;;;;;;5040238;28;20465;-70
2022/06/11 01:35:37;;;;;;;12.60;6.18;;;;;;;;;;5050214;28;20094;-70
2022/06/11 01:38:06;;;;;;;12.20;6.00;;;;;;;;;;5045245;28;20114;-70
2022/06/11 01:40:35;;;;;;;13.50;6.10;;;;;;;;;;5051132;28;20032;-70
2022/06/11 01:43:12;;;;;;;10.38;5.75;;;;;;;;;;5041361;28;20021;-70
2022/06/11 01:45:37;;;;;;;14.52;7.30;;;;;;;;;;5040239;28;20048;-71
2022/06/11 01:48:04;;;;;;;10.35;6.15;;;;;;;;;;5040978;28;20017;-70
2022/06/11 01:50:31;;;;;;;12.68;6.20;;;;;;;;;;5040015;28;20043;-70
2022/06/11 01:53:08;;;;;;;11.55;5.75;;;;;;;;;;5034736;28;20479;-70
2022/06/11 01:55:52;;;;;;;15.43;5.68;;;;;;;;;;5034035;28;20087;-70
2022/06/11 01:58:44;;;;;;;13.13;6.03;;;;;;;;;;5040012;28;20439;-70
2022/06/11 02:01:09;;;;;;;11.40;6.50;;;;;;;;;;5038551;28;20116;-70
2022/06/11 02:03:43;;;;;;;11.20;5.93;;;;;;;;;;5042395;28;20159;-70
2022/06/11 02:06:08;;;;;;;15.25;5.80;;;;;;;;;;5038693;28;20025;-71
2022/06/11 02:08:36;;;;;;;10.75;6.10;;;;;;;;;;5038857;28;20033;-70
2022/06/11 02:11:13;;;;;;;13.13;6.50;;;;;;;;;;5034968;28;20035;-70
2022/06/11 02:13:48;;;;;;;11.13;6.47;;;;;;;;;;5036035;28;20116;-71
2022/06/11 02:16:32;;;;;;;16.88;6.80;;;;;;;;;;5043429;28;20112;-71
2022/06/11 02:18:59;;;;;;;12.82;6.97;;;;;;;;;;5034298;28;20030;-70
2022/06/11 02:21:26;;;;;;;13.50;7.57;;;;;;;;;;5043649;28;20037;-70
2022/06/11 02:23:53;;;;;;;12.77;6.80;;;;;;;;;;5034903;28;20108;-70
2022/06/11 02:26:20;;;;;;;14.00;7.45;;;;;;;;;;5040577;28;20043;-70
2022/06/11 02:28:47;;;;;;;13.30;7.68;;;;;;;;;;5038585;28;20051;-70
2022/06/11 02:31:14;;;;;;;12.45;7.38;;;;;;;;;;5039704;28;20032;-70
2022/06/11 02:33:40;;;;;;;15.27;7.15;;;;;;;;;;5028523;28;20365;-70
2022/06/11 02:36:15;;;;;;;14.20;7.38;;;;;;;;;;5041666;28;20033;-70
2022/06/11 02:38:40;;;;;;;16.40;8.00;;;;;;;;;;5044718;28;20039;-71
2022/06/11 02:41:09;;;;;;;17.38;7.97;;;;;;;;;;5042364;28;20037;-71
2022/06/11 02:43:34;;;;;;;21.08;8.43;;;;;;;;;;5050837;28;20404;-71
2022/06/11 02:46:41;;;;;;;13.07;7.28;;;;;;;;;;5047958;28;20068;-71
2022/06/11 02:48:45;;;;;;;14.85;8.05;;;;;;;;;;5036088;28;20028;-71
2022/06/11 02:51:11;;;;;;;15.07;7.63;;;;;;;;;;5043039;28;20165;-71
2022/06/11 02:53:36;;;;;;;13.75;8.20;;;;;;;;;;5047471;28;20028;-71
2022/06/11 02:56:01;;;;;;;18.00;8.60;;;;;;;;;;5046032;28;20037;-71
2022/06/11 02:58:26;;;;;;;12.90;8.25;;;;;;;;;;5034377;28;20033;-71
2022/06/11 03:00:51;;;;;;;21.35;9.13;;;;;;;;;;5041190;28;20036;-71
2022/06/11 03:03:17;;;;;;;19.77;10.27;;;;;;;;;;5040290;28;20025;-71
2022/06/11 03:05:42;;;;;;;17.17;9.93;;;;;;;;;;5034827;28;20018;-71
2022/06/11 03:08:08;;;;;;;16.83;9.65;;;;;;;;;;5043020;28;20075;-71
2022/06/11 03:10:33;;;;;;;17.15;10.35;;;;;;;;;;5040176;28;20021;-71
2022/06/11 03:12:58;;;;;;;14.88;9.57;;;;;;;;;;5033759;28;20033;-71
2022/06/11 03:15:24;;;;;;;17.23;9.82;;;;;;;;;;5040645;28;20025;-71
2022/06/11 03:17:50;;;;;;;16.00;9.70;;;;;;;;;;5032626;28;20032;-71
2022/06/11 03:20:17;;;;;;;17.70;9.32;;;;;;;;;;5037284;28;20025;-71
2022/06/11 03:22:43;;;;;;;19.45;9.48;;;;;;;;;;5040678;28;20052;-71
2022/06/11 03:25:09;;;;;;;17.35;9.50;;;;;;;;;;5046726;28;20041;-71
2022/06/11 03:27:35;;;;;;;18.77;9.80;;;;;;;;;;5039680;28;20013;-71
2022/06/11 03:30:00;;;;;;;16.25;9.45;;;;;;;;;;5043402;28;20500;-71
2022/06/11 03:32:25;;;;;;;17.88;9.93;;;;;;;;;;5047922;28;20017;-71
2022/06/11 03:34:51;;;;;;;14.27;9.40;;;;;;;;;;5041877;28;20021;-71
2022/06/11 03:37:16;;;;;;;17.50;10.52;;;;;;;;;;5039395;28;20021;-71
2022/06/11 03:39:41;;;;;;;19.98;11.88;;;;;;;;;;5041365;28;20163;-71
2022/06/11 03:42:07;;;;;;;25.50;13.45;;;;;;;;;;5035356;28;20025;-71
2022/06/11 03:44:32;;;;;;;23.98;14.50;;;;;;;;;;5036490;28;20009;-71
2022/06/11 03:46:58;;;;;;;18.85;12.68;;;;;;;;;;5040485;28;20028;-71
2022/06/11 03:49:23;;;;;;;21.85;12.60;;;;;;;;;;5040575;28;20021;-71
2022/06/11 03:51:48;;;;;;;20.52;11.95;;;;;;;;;;5040885;28;20111;-71
2022/06/11 03:54:15;;;;;;;20.40;11.45;;;;;;;;;;5041138;28;20029;-71
2022/06/11 03:56:40;;;;;;;18.55;10.70;;;;;;;;;;5043770;28;20059;-71
2022/06/11 03:59:06;;;;;;;17.52;10.50;;;;;;;;;;5036803;28;20808;-71
2022/06/11 04:01:31;;;;;;;19.20;9.68;;;;;;;;;;5040159;28;20551;-71
2022/06/11 04:03:59;;;;;;;16.75;9.65;;;;;;;;;;5037133;28;20052;-71
2022/06/11 04:06:27;;;;;;;15.18;9.38;;;;;;;;;;5034267;28;20381;-71
2022/06/11 04:08:52;;;;;;;14.80;8.90;;;;;;;;;;5035404;28;20018;-71
2022/06/11 04:11:18;;;;;;;16.30;8.73;;;;;;;;;;5035659;28;20563;-71
2022/06/11 04:13:44;;;;;;;14.15;8.27;;;;;;;;;;5029743;28;20102;-71
2022/06/11 04:16:18;;;;;;;15.30;8.25;;;;;;;;;;5034314;28;20481;-71
2022/06/11 04:18:44;;;;;;;13.70;7.80;;;;;;;;;;5035131;28;20146;-71
2022/06/11 04:21:10;;;;;;;15.98;8.27;;;;;;;;;;5040699;28;20507;-71
2022/06/11 04:23:37;;;;;;;15.13;8.02;;;;;;;;;;5037887;28;20090;-71
2022/06/11 04:26:06;;;;;;;18.05;8.23;;;;;;;;;;5032834;28;20029;-71
2022/06/11 04:28:31;;;;;;;15.43;8.43;;;;;;;;;;5039166;28;20021;-71
2022/06/11 04:30:58;;;;;;;11.90;7.93;;;;;;;;;;5032950;28;20420;-71
2022/06/11 04:33:23;;;;;;;14.48;7.88;;;;;;;;;;5042687;28;20021;-71
2022/06/11 04:35:49;;;;;;;13.88;8.00;;;;;;;;;;5042420;28;20018;-71
2022/06/11 04:38:14;;;;;;;18.67;8.95;;;;;;;;;;5034429;28;20531;-71
2022/06/11 04:40:39;;;;;;;19.15;9.05;;;;;;;;;;5037246;28;20025;-71
2022/06/11 04:43:04;;;;;;;16.10;7.90;;;;;;;;;;5041801;28;20024;-71
2022/06/11 04:45:30;;;;;;;16.05;8.57;;;;;;;;;;5031796;28;20109;-71
2022/06/11 04:47:55;;;;;;;16.23;8.18;;;;;;;;;;5032435;28;20032;-71
2022/06/11 04:50:21;;;;;;;12.60;7.95;;;;;;;;;;5035758;28;20453;-71
2022/06/11 04:52:47;;;;;;;14.02;7.95;;;;;;;;;;5042141;28;20026;-71
2022/06/11 04:55:14;;;;;;;16.27;7.82;;;;;;;;;;5040389;28;20013;-71
2022/06/11 04:57:39;;;;;;;12.80;7.47;;;;;;;;;;5041207;28;20028;-71
2022/06/11 05:00:06;;;;;;;13.20;8.10;;;;;;;;;;5042085;28;20108;-71
2022/06/11 05:02:31;;;;;;;13.45;7.50;;;;;;;;;;5047626;28;20025;-71
2022/06/11 05:04:56;;;;;;;16.63;7.35;;;;;;;;;;5037655;28;20462;-71
2022/06/11 05:07:21;;;;;;;13.52;6.60;;;;;;;;;;5045808;28;20505;-71
2022/06/11 05:09:47;;;;;;;13.60;6.63;;;;;;;;;;5050685;28;20468;-71
2022/06/11 05:12:12;;;;;;;14.60;6.47;;;;;;;;;;5041823;28;22015;-72
2022/06/11 05:14:38;;;;;;;11.00;5.68;;;;;;;;;;5040507;28;20024;-71
2022/06/11 05:17:03;;;;;;;9.27;5.20;;;;;;;;;;5045109;28;20167;-71
2022/06/11 05:19:29;;;;;;;9.32;4.57;;;;;;;;;;5043959;28;20021;-72
2022/06/11 05:21:54;;;;;;;8.45;4.20;;;;;;;;;;5034907;28;20469;-72
2022/06/11 05:24:20;;;;;;;10.35;4.18;;;;;;;;;;5041134;28;20097;-72
2022/06/11 05:26:50;;;;;;;8.75;4.30;;;;;;;;;;5042181;28;20033;-72
2022/06/11 05:29:19;;;;;;;8.75;4.00;;;;;;;;;;5041591;28;20492;-72
2022/06/11 05:31:44;;;;;;;9.43;4.10;;;;;;;;;;5045743;28;20028;-72
2022/06/11 05:34:10;;;;;;;8.75;4.07;;;;;;;;;;5041600;28;20020;-72
2022/06/11 05:36:35;;;;;;;8.52;3.40;;;;;;;;;;5043207;28;20024;-72
2022/06/11 05:39:00;;;;;;;6.55;3.15;;;;;;;;;;5040940;28;20026;-72
2022/06/11 05:41:25;;;;;;;8.93;3.33;;;;;;;;;;5037441;28;20022;-72
2022/06/11 05:43:51;;;;;;;6.57;2.83;;;;;;;;;;5037020;28;20029;-72
2022/06/11 05:46:18;;;;;;;7.93;2.92;;;;;;;;;;5042933;28;20017;-72
2022/06/11 05:48:45;;;;;;;6.47;2.88;;;;;;;;;;5046276;28;20017;-72
2022/06/11 05:51:12;;;;;;;7.18;3.05;;;;;;;;;;5045318;28;20485;-72
2022/06/11 05:53:38;;;;;;;7.35;2.40;;;;;;;;;;5043276;28;20489;-72
2022/06/11 05:56:04;;;;;;;4.85;2.60;;;;;;;;;;5039533;28;20077;-71
2022/06/11 05:58:32;;;;;;;8.18;2.97;;;;;;;;;;5038867;28;20018;-72
2022/06/11 06:00:58;;;;;;;5.28;2.90;;;;;;;;;;5044667;28;20033;-72
2022/06/11 06:03:24;;;;;;;9.77;3.13;;;;;;;;;;5036188;28;20500;-72
2022/06/11 06:05:49;;;;;;;10.57;3.13;;;;;;;;;;5042096;28;20025;-72
2022/06/11 06:08:14;;;;;;;6.43;3.00;;;;;;;;;;5032377;28;20035;-72
2022/06/11 06:10:40;;;;;;;6.22;2.65;;;;;;;;;;5033251;28;20029;-72
2022/06/11 06:13:45;;;;;;;7.88;2.83;;;;;;;;;;5036143;28;20025;-72
2022/06/11 06:15:51;;;;;;;6.15;2.80;;;;;;;;;;5042752;28;20033;-72
2022/06/11 06:18:16;;;;;;;7.70;2.85;;;;;;;;;;5051548;28;20063;-72
2022/06/11 06:20:42;;;;;;;7.57;2.80;;;;;;;;;;5046112;28;20438;-72
2022/06/11 06:23:07;;;;;;;6.18;2.45;;;;;;;;;;5035892;28;20048;-72
2022/06/11 06:25:32;;;;;;;9.05;2.80;;;;;;;;;;5039538;28;20115;-72
2022/06/11 06:27:57;;;;;;;6.47;2.45;;;;;;;;;;5040697;28;20116;-72
2022/06/11 06:30:22;;;;;;;6.15;2.30;;;;;;;;;;5035688;28;20057;-72
2022/06/11 06:32:48;;;;;;;7.63;1.88;;;;;;;;;;5046120;28;20058;-72
2022/06/11 06:35:15;;;;;;;5.57;1.90;;;;;;;;;;5037229;28;20052;-72
2022/06/11 06:37:41;;;;;;;8.32;2.08;;;;;;;;;;5037788;28;20022;-72
2022/06/11 06:40:06;;;;;;;6.03;1.98;;;;;;;;;;5040341;28;20529;-72
2022/06/11 06:42:31;;;;;;;7.35;2.00;;;;;;;;;;5036463;28;20028;-72
2022/06/11 06:44:57;;;;;;;5.63;1.63;;;;;;;;;;5031712;28;20053;-72
2022/06/11 06:47:22;;;;;;;5.07;1.58;;;;;;;;;;5013694;28;20016;-72
2022/06/11 06:49:47;;;;;;;5.13;1.88;;;;;;;;;;5044921;28;20021;-72
2022/06/11 06:52:13;;;;;;;7.05;2.38;;;;;;;;;;5033471;28;20469;-72
2022/06/11 06:54:38;;;;;;;6.00;1.73;;;;;;;;;;5035563;28;20413;-72
2022/06/11 06:57:04;;;;;;;5.30;1.67;;;;;;;;;;5035436;28;20029;-72
2022/06/11 06:59:29;;;;;;;6.88;1.75;;;;;;;;;;5041310;28;20010;-72
2022/06/11 07:01:55;;;;;;;6.25;1.92;;;;;;;;;;5042598;28;20057;-72
2022/06/11 07:04:20;;;;;;;7.43;1.80;;;;;;;;;;5034521;28;20060;-72
2022/06/11 07:06:45;;;;;;;7.72;1.88;;;;;;;;;;5043301;28;20013;-72
2022/06/11 07:09:11;;;;;;;8.00;2.03;;;;;;;;;;5033746;28;20029;-72
2022/06/11 07:11:36;;;;;;;6.78;1.80;;;;;;;;;;5046455;28;20025;-72
2022/06/11 07:14:01;;;;;;;4.75;1.55;;;;;;;;;;5042486;28;20032;-72
2022/06/11 07:16:29;;;;;;;7.55;1.60;;;;;;;;;;5033928;28;20048;-72
2022/06/11 07:18:57;;;;;;;7.53;1.95;;;;;;;;;;5035362;28;20155;-72
2022/06/11 07:21:27;;;;;;;6.40;1.90;;;;;;;;;;5035925;28;20457;-72
2022/06/11 07:23:54;;;;;;;4.32;1.50;;;;;;;;;;5037377;28;20025;-72
2022/06/11 07:26:25;;;;;;;7.97;1.80;;;;;;;;;;5037731;28;20381;-72
2022/06/11 07:28:53;;;;;;;5.82;1.50;;;;;;;;;;5047955;28;20461;-72
2022/06/11 07:31:18;;;;;;;5.95;1.60;;;;;;;;;;5045155;28;20021;-72
2022/06/11 07:33:43;;;;;;;4.80;1.55;;;;;;;;;;5047513;28;20481;-72
2022/06/11 07:36:10;;;;;;;4.53;1.63;;;;;;;;;;5048886;28;20035;-73
2022/06/11 07:38:35;;;;;;;5.57;1.83;;;;;;;;;;5047489;28;20485;-72
2022/06/11 07:41:00;;;;;;;7.05;1.65;;;;;;;;;;5049315;28;20036;-72
2022/06/11 07:43:25;;;;;;;8.60;1.70;;;;;;;;;;5045660;28;20021;-72
2022/06/11 07:45:51;;;;;;;6.80;1.60;;;;;;;;;;5044040;28;20178;-72
2022/06/11 07:48:17;;;;;;;6.00;1.65;;;;;;;;;;5049165;28;20045;-72
2022/06/11 07:50:47;;;;;;;6.97;1.63;;;;;;;;;;5043963;28;20154;-72
2022/06/11 07:53:13;;;;;;;6.32;1.55;;;;;;;;;;5046430;28;20495;-72
2022/06/11 07:55:39;;;;;;;7.70;1.92;;;;;;;;;;5041924;28;20021;-72
2022/06/11 07:58:05;;;;;;;6.57;1.75;;;;;;;;;;5042416;28;20025;-72
2022/06/11 08:00:36;;;;;;;9.18;1.77;;;;;;;;;;5020814;28;20124;-72
2022/06/11 08:03:02;;;;;;;6.13;1.73;;;;;;;;;;5044079;28;20476;-72
2022/06/11 08:05:28;;;;;;;7.53;1.65;;;;;;;;;;5045190;28;20071;-73
2022/06/11 08:07:53;;;;;;;9.52;1.80;;;;;;;;;;5039473;28;20021;-72
2022/06/11 08:10:20;;;;;;;8.45;1.88;;;;;;;;;;5042339;28;20043;-72
2022/06/11 08:12:45;;;;;;;8.10;1.70;;;;;;;;;;5039091;28;20371;-72
2022/06/11 08:15:11;;;;;;;6.65;1.80;;;;;;;;;;5042653;28;20032;-72
2022/06/11 08:17:37;;;;;;;5.93;1.80;;;;;;;;;;5043654;28;20024;-72
2022/06/11 08:20:03;;;;;;;8.23;1.70;;;;;;;;;;5045648;28;20423;-72
2022/06/11 08:22:29;;;;;;;9.02;2.30;;;;;;;;;;5046251;28;20021;-72
2022/06/11 08:24:54;;;;;;;8.55;1.65;;;;;;;;;;5049612;28;20021;-72
2022/06/11 08:27:20;;;;;;;8.07;2.05;;;;;;;;;;5053951;28;20443;-72
2022/06/11 08:29:45;;;;;;;6.38;1.85;;;;;;;;;;5052944;28;20017;-72
2022/06/11 08:32:10;;;;;;;4.47;1.45;;;;;;;;;;5047370;28;20028;-72
2022/06/11 08:34:40;;;;;;;8.82;1.92;;;;;;;;;;5045522;28;20037;-72
2022/06/11 08:37:05;;;;;;;7.68;1.80;;;;;;;;;;5038612;28;20108;-73
2022/06/11 08:39:30;;;;;;;7.47;1.73;;;;;;;;;;5046774;28;20144;-73
2022/06/11 08:41:56;;;;;;;7.40;1.83;;;;;;;;;;5049306;28;20033;-72
2022/06/11 08:44:22;;;;;;;9.80;2.15;;;;;;;;;;5050686;28;20365;-72
2022/06/11 08:46:48;;;;;;;7.28;1.58;;;;;;;;;;5053032;28;20033;-72
2022/06/11 08:49:37;;;;;;;8.73;2.03;;;;;;;;;;5050498;28;20036;-72
2022/06/11 08:52:23;;;;;;;10.77;2.20;;;;;;;;;;5051805;28;20033;-72
2022/06/11 08:54:48;;;;;;;12.02;2.10;;;;;;;;;;5049079;28;20037;-72
2022/06/11 08:57:16;;;;;;;10.35;1.95;;;;;;;;;;5040445;28;20147;-72
2022/06/11 08:59:44;;;;;;;8.80;2.38;;;;;;;;;;5047184;28;20025;-72
2022/06/11 09:02:39;;;;;;;6.65;1.75;;;;;;;;;;5048939;28;20028;-72
2022/06/11 09:05:19;;;;;;;8.18;2.10;;;;;;;;;;4966973;28;20125;-72
2022/06/11 09:07:54;;;;;;;8.70;1.80;;;;;;;;;;5047839;28;20028;-72
2022/06/11 09:10:43;;;;;;;8.52;1.98;;;;;;;;;;5048187;28;20701;-72
2022/06/11 09:13:38;;;;;;;9.63;2.17;;;;;;;;;;5043746;28;20057;-72
2022/06/11 09:16:22;;;;;;;9.45;2.10;;;;;;;;;;5019912;28;20037;-72
2022/06/11 09:18:47;;;;;;;8.75;1.80;;;;;;;;;;5046534;28;20596;-72
2022/06/11 09:21:28;;;;;;;8.80;2.30;;;;;;;;;;5050103;28;20049;-72
2022/06/11 09:23:56;;;;;;;7.85;2.17;;;;;;;;;;5060375;28;21541;-71
2022/06/11 09:26:24;;;;;;;8.55;2.30;;;;;;;;;;5050195;28;20404;-71
2022/06/11 09:28:57;;;;;;;7.82;1.95;;;;;;;;;;5044489;28;20044;-71
2022/06/11 09:31:22;;;;;;;8.52;1.98;;;;;;;;;;5047148;28;20051;-71
2022/06/11 09:33:47;;;;;;;8.68;2.05;;;;;;;;;;5045022;28;20079;-71
2022/06/11 09:36:25;;;;;;;8.65;1.90;;;;;;;;;;5044792;28;20440;-71
2022/06/11 09:39:06;;;;;;;7.38;2.15;;;;;;;;;;5048935;28;20025;-71
2022/06/11 09:41:38;;;;;;;11.75;2.00;;;;;;;;;;5048574;28;20096;-71
2022/06/11 09:44:11;;;;;;;11.75;2.30;;;;;;;;;;5044774;28;20455;-71
2022/06/11 09:46:48;;;;;;;11.57;2.28;;;;;;;;;;5045477;28;20531;-71
2022/06/11 09:49:16;;;;;;;8.55;2.10;;;;;;;;;;5045880;28;20427;-71
2022/06/11 09:51:51;;;;;;;8.30;2.20;;;;;;;;;;5036572;28;20031;-71
2022/06/11 09:54:43;;;;;;;9.35;1.77;;;;;;;;;;5044166;28;20124;-71
2022/06/11 09:57:08;;;;;;;10.50;1.88;;;;;;;;;;5021711;28;20496;-71
2022/06/11 09:59:37;;;;;;;8.05;1.90;;;;;;;;;;5047681;28;20040;-71
2022/06/11 10:02:17;;;;;;;12.45;2.10;;;;;;;;;;5042439;28;20099;-71
2022/06/11 10:04:44;;;;;;;7.63;1.90;;;;;;;;;;5040235;28;20036;-71
2022/06/11 10:07:26;;;;;;;7.90;1.90;;;;;;;;;;5047621;28;20053;-71
2022/06/11 10:10:05;;;;;;;8.70;2.00;;;;;;;;;;5046337;28;20059;-71
2022/06/11 10:12:36;;;;;;;9.23;2.20;;;;;;;;;;5049424;28;20507;-71
2022/06/11 10:15:09;;;;;;;9.52;1.88;;;;;;;;;;5063126;28;20059;-71
2022/06/11 10:17:39;;;;;;;8.68;2.13;;;;;;;;;;5048089;28;20120;-71
2022/06/11 10:20:27;;;;;;;8.03;1.90;;;;;;;;;;5051689;28;20461;-71
2022/06/11 10:23:12;;;;;;;8.45;1.92;;;;;;;;;;5039766;28;20041;-71
2022/06/11 10:25:40;;;;;;;5.97;1.70;;;;;;;;;;5047353;28;20027;-71
2022/06/11 10:28:09;;;;;;;10.02;1.90;;;;;;;;;;5043001;28;20167;-72
2022/06/11 10:30:40;;;;;;;7.53;2.13;;;;;;;;;;5044571;28;20056;-72
2022/06/11 10:33:12;;;;;;;8.68;2.28;;;;;;;;;;5045689;28;20025;-72
2022/06/11 10:36:00;;;;;;;9.65;2.58;;;;;;;;;;5046353;28;20057;-72
2022/06/11 10:38:28;;;;;;;8.52;2.03;;;;;;;;;;4986046;28;20505;-72
2022/06/11 10:40:54;;;;;;;9.45;2.17;;;;;;;;;;5040070;28;20078;-72
2022/06/11 10:43:22;;;;;;;7.07;1.80;;;;;;;;;;5047097;28;20029;-72
2022/06/11 10:45:48;;;;;;;8.20;1.90;;;;;;;;;;5049235;28;20016;-72
2022/06/11 10:48:17;;;;;;;8.63;1.80;;;;;;;;;;5050204;28;20025;-72
2022/06/11 10:50:43;;;;;;;10.35;2.47;;;;;;;;;;5045687;28;20393;-72
2022/06/11 10:53:12;;;;;;;11.32;2.05;;;;;;;;;;5046388;28;20035;-72
2022/06/11 10:55:46;;;;;;;9.02;1.77;;;;;;;;;;5039207;28;20058;-72
2022/06/11 10:58:20;;;;;;;9.23;2.05;;;;;;;;;;5036855;28;20036;-72
2022/06/11 11:00:45;;;;;;;6.38;1.70;;;;;;;;;;5038904;28;20116;-72
2022/06/11 11:03:18;;;;;;;10.70;2.15;;;;;;;;;;5043513;28;20369;-72
2022/06/11 11:05:46;;;;;;;8.10;1.70;;;;;;;;;;5034372;28;20039;-72
2022/06/11 11:08:12;;;;;;;7.95;1.67;;;;;;;;;;5045306;28;20536;-72
2022/06/11 11:10:48;;;;;;;8.77;1.70;;;;;;;;;;5050643;28;20021;-72
2022/06/11 11:13:20;;;;;;;9.23;1.83;;;;;;;;;;5050972;28;20023;-72
2022/06/11 11:15:46;;;;;;;10.52;2.13;;;;;;;;;;5051696;28;20532;-72
2022/06/11 11:18:19;;;;;;;9.45;1.90;;;;;;;;;;5051576;28;20412;-72
2022/06/11 11:20:45;;;;;;;10.35;2.35;;;;;;;;;;5042977;28;20770;-72
2022/06/11 11:23:10;;;;;;;7.28;1.88;;;;;;;;;;5050545;28;20021;-72
2022/06/11 11:25:35;;;;;;;7.43;1.67;;;;;;;;;;5050362;28;20468;-72
2022/06/11 11:28:01;;;;;;;8.33;1.83;;;;;;;;;;5051489;28;20100;-72
2022/06/11 11:30:35;;;;;;;10.25;1.98;;;;;;;;;;5050864;28;20271;-72
2022/06/11 11:33:19;;;;;;;9.15;2.15;;;;;;;;;;5047095;28;20055;-72
2022/06/11 11:35:44;;;;;;;10.77;1.80;;;;;;;;;;5050627;28;20029;-72
2022/06/11 11:38:13;;;;;;;9.52;1.63;;;;;;;;;;5040188;28;20476;-72
2022/06/11 11:40:49;;;;;;;7.07;1.58;;;;;;;;;;5051037;28;20027;-72
2022/06/11 11:43:15;;;;;;;9.80;2.10;;;;;;;;;;5051146;28;20029;-72
2022/06/11 11:45:40;;;;;;;10.55;1.90;;;;;;;;;;5044677;28;20028;-72
2022/06/11 11:48:06;;;;;;;12.23;2.13;;;;;;;;;;5051362;28;20032;-72
2022/06/11 11:50:37;;;;;;;7.57;1.70;;;;;;;;;;5050096;28;20207;-72
2022/06/11 11:53:04;;;;;;;8.05;1.88;;;;;;;;;;5049924;28;20147;-72
2022/06/11 11:55:34;;;;;;;8.77;2.15;;;;;;;;;;5051315;28;20029;-72
2022/06/11 11:58:12;;;;;;;10.05;2.00;;;;;;;;;;5050753;28;20028;-72
2022/06/11 12:00:37;;;;;;;6.45;1.60;;;;;;;;;;5047198;28;20179;-72
2022/06/11 12:03:04;;;;;;;7.88;1.77;;;;;;;;;;5066038;28;20175;-72
2022/06/11 12:05:33;;;;;;;7.45;1.83;;;;;;;;;;5075012;28;20021;-72
2022/06/11 12:07:59;;;;;;;11.65;2.10;;;;;;;;;;5059324;28;20128;-71
2022/06/11 12:10:29;;;;;;;8.73;1.90;;;;;;;;;;5055237;28;20024;-71
2022/06/11 12:12:55;;;;;;;9.35;1.85;;;;;;;;;;5055270;28;20088;-71
2022/06/11 12:15:21;;;;;;;8.65;1.90;;;;;;;;;;5054905;28;20503;-71
2022/06/11 12:17:54;;;;;;;9.32;1.90;;;;;;;;;;5054907;28;20063;-71
2022/06/11 12:20:25;;;;;;;9.85;1.98;;;;;;;;;;5053379;28;20052;-71
2022/06/11 12:22:58;;;;;;;10.93;1.98;;;;;;;;;;5053682;28;20650;-72
2022/06/11 12:25:43;;;;;;;7.65;2.10;;;;;;;;;;5054646;28;20075;-72
2022/06/11 12:28:12;;;;;;;9.65;1.88;;;;;;;;;;5054046;28;20104;-72
2022/06/11 12:30:37;;;;;;;9.13;1.95;;;;;;;;;;5054702;28;20381;-72
2022/06/11 12:33:06;;;;;;;6.60;1.38;;;;;;;;;;5054415;28;20017;-72
2022/06/11 12:35:31;;;;;;;8.27;1.70;;;;;;;;;;5054332;28;20025;-72
2022/06/11 12:37:56;;;;;;;10.15;1.70;;;;;;;;;;5053302;28;20047;-71
2022/06/11 12:40:22;;;;;;;7.07;1.58;;;;;;;;;;5054028;28;20104;-71
2022/06/11 12:42:53;;;;;;;7.63;1.85;;;;;;;;;;5054537;28;20082;-71
2022/06/11 12:45:18;;;;;;;8.40;1.90;;;;;;;;;;5054078;28;20036;-72
2022/06/11 12:48:13;;;;;;;7.00;2.10;;;;;;;;;;5054487;28;20021;-72
2022/06/11 12:51:03;;;;;;;13.32;1.98;;;;;;;;;;5036326;28;20033;-72
2022/06/11 12:53:40;;;;;;;9.15;1.90;;;;;;;;;;5052977;28;20456;-72
2022/06/11 12:56:25;;;;;;;6.68;1.50;;;;;;;;;;5054282;28;20469;-72
2022/06/11 12:58:57;;;;;;;5.75;1.63;;;;;;;;;;5053511;28;20033;-72
2022/06/11 13:01:26;;;;;;;7.68;1.80;;;;;;;;;;5053123;28;20158;-71
2022/06/11 13:04:10;;;;;;;6.18;1.48;;;;;;;;;;5053890;28;20021;-71
2022/06/11 13:06:36;;;;;;;6.18;1.67;;;;;;;;;;5068247;28;20019;-71
2022/06/11 13:09:01;;;;;;;7.10;2.10;;;;;;;;;;5054122;28;20100;-71
2022/06/11 13:11:29;;;;;;;7.07;1.70;;;;;;;;;;5050811;28;20431;-71
2022/06/11 13:13:55;;;;;;;9.25;2.22;;;;;;;;;;5053434;28;20032;-71
2022/06/11 13:16:20;;;;;;;7.20;1.73;;;;;;;;;;5053750;28;20609;-71
2022/06/11 13:18:51;;;;;;;8.32;1.98;;;;;;;;;;5053949;28;20044;-71
2022/06/11 13:21:35;;;;;;;10.52;2.20;;;;;;;;;;5053766;28;20028;-71
2022/06/11 13:24:01;;;;;;;7.55;1.80;;;;;;;;;;5037534;28;20021;-71
2022/06/11 13:26:35;;;;;;;11.43;2.20;;;;;;;;;;5053860;28;20021;-71
2022/06/11 13:29:19;;;;;;;9.13;2.35;;;;;;;;;;5053399;28;20373;-71
2022/06/11 13:31:49;;;;;;;10.10;2.25;;;;;;;;;;5032525;28;20082;-71
2022/06/11 13:34:29;;;;;;;8.77;2.20;;;;;;;;;;5053448;28;20103;-71
2022/06/11 13:37:02;;;;;;;9.93;2.45;;;;;;;;;;5045061;28;20082;-72
2022/06/11 13:39:27;;;;;;;12.25;2.40;;;;;;;;;;5053342;28;20033;-71
2022/06/11 13:41:58;;;;;;;12.73;2.40;;;;;;;;;;5035273;28;20021;-72
2022/06/11 13:44:24;;;;;;;8.98;1.92;;;;;;;;;;5052822;28;20021;-72
2022/06/11 13:46:52;;;;;;;9.63;2.13;;;;;;;;;;5052729;28;20025;-71
2022/06/11 13:49:23;;;;;;;10.75;2.20;;;;;;;;;;5051828;28;20302;-72
2022/06/11 13:51:51;;;;;;;8.40;1.85;;;;;;;;;;5037704;28;20026;-71
2022/06/11 13:57:00;;;;;;;6.85;1.60;;;;;;;;;;5047106;28;20372;-71
2022/06/11 13:59:44;;;;;;;6.15;1.70;;;;;;;;;;5044648;28;20025;-72
2022/06/11 14:02:09;;;;;;;8.82;1.73;;;;;;;;;;5049271;28;20029;-71
2022/06/11 14:04:47;;;;;;;6.78;1.73;;;;;;;;;;5048097;28;20073;-71
2022/06/11 14:07:17;;;;;;;6.63;1.70;;;;;;;;;;5046167;28;20167;-72
2022/06/11 14:12:45;;;;;;;7.32;1.30;;;;;;;;;;5049366;28;20051;-72
2022/06/11 14:15:19;;;;;;;7.78;1.60;;;;;;;;;;5050132;28;20060;-72
2022/06/11 14:17:47;;;;;;;8.68;1.90;;;;;;;;;;5048796;28;20051;-72
2022/06/11 14:20:24;;;;;;;8.40;1.85;;;;;;;;;;5050469;28;20151;-71
2022/06/11 14:22:52;;;;;;;10.35;2.08;;;;;;;;;;5043858;28;20086;-71
2022/06/11 14:25:50;;;;;;;11.85;2.08;;;;;;;;;;5051652;28;20009;-71
2022/06/11 14:28:16;;;;;;;8.93;2.40;;;;;;;;;;5010663;28;20029;-72
2022/06/11 14:30:41;;;;;;;10.52;2.25;;;;;;;;;;5052309;28;20024;-71
2022/06/11 14:33:12;;;;;;;10.13;2.10;;;;;;;;;;5051716;28;20108;-71
2022/06/11 14:35:58;;;;;;;8.57;1.65;;;;;;;;;;5050754;28;20115;-72
2022/06/11 14:38:32;;;;;;;6.75;1.60;;;;;;;;;;5050263;28;20095;-72
2022/06/11 14:41:07;;;;;;;7.88;1.73;;;;;;;;;;5051418;28;20051;-72
2022/06/11 14:46:33;;;;;;;6.82;1.65;;;;;;;;;;5035681;28;20025;-71
2022/06/11 14:48:59;;;;;;;9.88;2.03;;;;;;;;;;5050835;28;20023;-72
2022/06/11 14:51:26;;;;;;;6.65;1.95;;;;;;;;;;5049943;28;20400;-72
2022/06/11 14:54:06;;;;;;;8.00;1.85;;;;;;;;;;5050647;28;20024;-72
2022/06/11 14:56:46;;;;;;;9.05;2.03;;;;;;;;;;5050462;28;20112;-71